createdAt,value
2022-12-27T00:00:27.913Z,18.53
2022-12-27T00:03:36.972Z,17.32
2022-12-27T00:06:42.774Z,17.56
2022-12-27T00:09:49.401Z,17.04
2022-12-27T00:12:55.210Z,16.63
2022-12-27T00:16:07.452Z,16.32
2022-12-27T00:19:15.876Z,16.19
2022-12-27T00:22:22.933Z,14.71
2022-12-27T00:25:28.654Z,14.61
2022-12-27T00:28:37.400Z,14.00
2022-12-27T00:31:43.831Z,13.93
2022-12-27T00:34:53.066Z,13.40
2022-12-27T00:38:00.342Z,13.36
2022-12-27T00:41:08.792Z,14.24
2022-12-27T00:44:14.383Z,13.35
2022-12-27T00:47:21.007Z,13.01
2022-12-27T00:50:29.434Z,12.67
2022-12-27T00:53:37.908Z,12.30
2022-12-27T00:56:43.625Z,12.05
2022-12-27T00:59:51.480Z,11.27
2022-12-27T01:02:57.345Z,11.61
2022-12-27T01:06:14.608Z,11.31
2022-12-27T01:09:20.385Z,11.77
2022-12-27T01:12:27.146Z,11.56
2022-12-27T01:15:33.275Z,12.01
2022-12-27T01:18:40.003Z,11.67
2022-12-27T01:21:48.347Z,11.62
2022-12-27T01:24:55.032Z,12.43
2022-12-27T01:28:00.670Z,13.01
2022-12-27T01:31:13.081Z,14.05
2022-12-27T01:34:20.280Z,11.78
2022-12-27T01:37:31.667Z,10.41
2022-12-27T01:40:39.502Z,10.06
2022-12-27T01:43:44.368Z,9.45
2022-12-27T01:46:50.607Z,11.43
2022-12-27T01:50:09.319Z,10.48
2022-12-27T01:53:24.466Z,11.18
2022-12-27T01:56:35.080Z,10.34
2022-12-27T01:59:42.611Z,11.59
2022-12-27T02:02:49.765Z,12.49
2022-12-27T02:05:56.467Z,12.86
2022-12-27T02:09:16.756Z,12.80
2022-12-27T02:12:24.681Z,14.27
2022-12-27T02:15:31.157Z,13.32
2022-12-27T02:18:37.683Z,12.90
2022-12-27T02:22:25.364Z,12.87
2022-12-27T02:26:16.286Z,11.96
2022-12-27T02:29:55.276Z,11.04
2022-12-27T02:33:09.722Z,10.76
2022-12-27T02:36:27.562Z,10.75
2022-12-27T02:39:38.954Z,10.96
2022-12-27T02:42:58.279Z,10.63
2022-12-27T02:46:31.741Z,10.77
2022-12-27T02:49:58.529Z,10.85
2022-12-27T02:53:20.331Z,9.96
2022-12-27T02:57:07.859Z,9.59
2022-12-27T03:00:33.938Z,9.33
2022-12-27T03:04:09.473Z,9.32
2022-12-27T03:07:34.760Z,9.26
2022-12-27T03:11:07.869Z,9.09
2022-12-27T03:14:39.959Z,8.20
2022-12-27T03:18:05.011Z,6.92
2022-12-27T03:21:33.164Z,6.34
2022-12-27T03:24:56.351Z,6.35
2022-12-27T03:28:22.043Z,6.36
2022-12-27T03:32:00.084Z,6.34
2022-12-27T03:35:16.297Z,6.40
2022-12-27T03:38:24.843Z,5.69
2022-12-27T03:41:51.581Z,5.17
2022-12-27T03:44:59.345Z,6.90
2022-12-27T03:48:07.356Z,5.26
2022-12-27T03:51:21.449Z,2.89
2022-12-27T03:54:36.946Z,2.48
2022-12-27T03:57:44.201Z,2.56
2022-12-27T04:00:50.300Z,2.41
2022-12-27T04:03:56.913Z,1.79
2022-12-27T04:07:05.848Z,1.48
2022-12-27T04:10:28.588Z,1.75
2022-12-27T04:13:46.814Z,1.55
2022-12-27T04:17:05.899Z,1.79
2022-12-27T04:20:24.731Z,1.85
2022-12-27T04:23:43.519Z,2.06
2022-12-27T04:27:04.093Z,1.92
2022-12-27T04:30:25.068Z,2.16
2022-12-27T04:33:43.095Z,2.03
2022-12-27T04:36:50.739Z,2.32
2022-12-27T04:40:08.596Z,2.57
2022-12-27T04:43:41.665Z,3.30
2022-12-27T04:46:59.828Z,3.58
2022-12-27T04:50:25.619Z,4.26
2022-12-27T04:53:45.380Z,5.40
2022-12-27T04:56:51.967Z,4.04
2022-12-27T05:00:12.564Z,5.96
2022-12-27T05:03:24.071Z,4.89
2022-12-27T05:06:29.796Z,5.05
2022-12-27T05:09:48.950Z,4.16
2022-12-27T05:13:07.375Z,3.93
2022-12-27T05:16:17.390Z,4.71
2022-12-27T05:19:23.030Z,4.07
2022-12-27T05:22:41.857Z,4.23
2022-12-27T05:25:53.103Z,5.61
2022-12-27T05:29:46.508Z,5.06
2022-12-27T05:33:00.716Z,5.20
2022-12-27T05:36:10.801Z,5.45
2022-12-27T05:39:16.815Z,7.70
2022-12-27T05:42:25.501Z,6.45
2022-12-27T05:45:32.826Z,6.08
2022-12-27T05:48:42.459Z,6.58
2022-12-27T05:51:47.998Z,5.59
2022-12-27T05:54:54.424Z,5.98
2022-12-27T05:58:00.077Z,5.20
2022-12-27T06:01:12.686Z,5.24
2022-12-27T06:04:20.956Z,5.14
2022-12-27T06:07:27.374Z,4.63
2022-12-27T06:10:33.028Z,4.60
2022-12-27T06:13:42.069Z,4.08
2022-12-27T06:16:50.019Z,3.12
2022-12-27T06:19:59.090Z,3.11
2022-12-27T06:23:05.172Z,3.06
2022-12-27T06:26:16.120Z,3.24
2022-12-27T06:29:27.635Z,3.58
2022-12-27T06:32:34.851Z,5.15
2022-12-27T06:35:43.109Z,4.17
2022-12-27T06:38:52.632Z,5.55
2022-12-27T06:41:59.238Z,6.44
2022-12-27T06:45:06.564Z,5.55
2022-12-27T06:48:12.324Z,6.07
2022-12-27T06:51:24.364Z,5.79
2022-12-27T06:54:30.842Z,6.39
2022-12-27T06:57:47.457Z,5.67
2022-12-27T07:00:58.509Z,5.71
2022-12-27T07:04:05.002Z,5.49
2022-12-27T07:07:15.829Z,4.96
2022-12-27T07:10:22.666Z,5.35
2022-12-27T07:13:28.372Z,4.59
2022-12-27T07:16:35.139Z,4.64
2022-12-27T07:19:40.946Z,5.95
2022-12-27T07:22:49.955Z,5.75
2022-12-27T07:25:55.534Z,5.29
2022-12-27T07:29:04.726Z,5.56
2022-12-27T07:32:10.315Z,4.53
2022-12-27T07:35:16.874Z,4.75
2022-12-27T07:38:25.051Z,6.13
2022-12-27T07:41:31.422Z,6.16
2022-12-27T07:44:39.376Z,5.96
2022-12-27T07:47:45.928Z,6.35
2022-12-27T07:50:58.404Z,5.94
2022-12-27T07:54:08.136Z,5.19
2022-12-27T07:57:13.738Z,5.29
2022-12-27T08:00:21.056Z,5.84
2022-12-27T08:03:26.905Z,60.21
2022-12-27T08:06:37.663Z,13.02
2022-12-27T08:09:52.288Z,22.76
2022-12-27T08:12:59.447Z,7.17
2022-12-27T08:16:05.776Z,5.77
2022-12-27T08:19:12.487Z,57.07
2022-12-27T08:22:18.236Z,73.72
2022-12-27T08:25:28.600Z,97.92
2022-12-27T08:28:34.157Z,56.08
2022-12-27T08:31:40.791Z,69.44
2022-12-27T08:34:46.556Z,56.36
2022-12-27T08:37:53.153Z,25.77
2022-12-27T08:41:04.812Z,52.60
2022-12-27T08:44:12.876Z,28.99
2022-12-27T08:47:19.644Z,21.57
2022-12-27T08:50:26.014Z,5.27
2022-12-27T08:53:31.729Z,21.38
2022-12-27T08:56:41.825Z,50.06
2022-12-27T08:59:47.565Z,29.12
2022-12-27T09:02:54.919Z,5.66
2022-12-27T09:06:12.055Z,13.68
2022-12-27T09:09:18.893Z,7.22
2022-12-27T09:12:27.368Z,10.89
2022-12-27T09:15:34.278Z,32.95
2022-12-27T09:18:40.754Z,33.31
2022-12-27T09:21:47.565Z,39.70
2022-12-27T09:24:53.248Z,25.36
2022-12-27T09:28:02.650Z,30.11
2022-12-27T09:31:13.129Z,71.69
2022-12-27T09:34:19.863Z,14.94
2022-12-27T09:37:25.451Z,14.11
2022-12-27T09:40:32.297Z,15.26
2022-12-27T09:43:55.591Z,12.39
2022-12-27T09:47:16.035Z,9.56
2022-12-27T09:50:31.224Z,10.42
2022-12-27T09:53:52.402Z,9.04
2022-12-27T09:57:19.483Z,6.87
2022-12-27T10:00:35.232Z,9.85
2022-12-27T10:03:41.773Z,5.67
2022-12-27T10:07:14.807Z,5.46
2022-12-27T10:10:38.750Z,4.97
2022-12-27T10:13:59.832Z,5.34
2022-12-27T10:17:28.063Z,4.47
2022-12-27T10:20:58.094Z,4.51
2022-12-27T10:24:21.189Z,4.44
2022-12-27T10:27:31.821Z,4.26
2022-12-27T10:30:38.921Z,3.88
2022-12-27T10:33:51.380Z,3.90
2022-12-27T10:36:57.032Z,3.99
2022-12-27T10:40:19.152Z,3.50
2022-12-27T10:43:36.371Z,3.51
2022-12-27T10:46:52.564Z,3.75
2022-12-27T10:50:18.775Z,3.91
2022-12-27T10:53:42.050Z,3.41
2022-12-27T10:56:47.994Z,3.02
2022-12-27T11:00:19.652Z,3.57
2022-12-27T11:03:26.353Z,3.87
2022-12-27T11:06:35.301Z,4.24
2022-12-27T11:09:50.163Z,3.83
2022-12-27T11:13:03.859Z,3.06
2022-12-27T11:16:23.131Z,2.62
2022-12-27T11:19:31.387Z,2.84
2022-12-27T11:22:48.279Z,2.54
2022-12-27T11:25:59.716Z,3.31
2022-12-27T11:29:07.188Z,5.00
2022-12-27T11:32:14.183Z,38.03
2022-12-27T11:35:24.217Z,16.66
2022-12-27T11:38:37.897Z,25.01
2022-12-27T11:41:55.792Z,28.46
2022-12-27T11:45:15.146Z,60.35
2022-12-27T11:48:31.006Z,39.33
2022-12-27T11:52:33.836Z,71.03
2022-12-27T11:56:06.845Z,57.11
2022-12-27T11:59:42.029Z,28.19
2022-12-27T12:03:27.127Z,20.48
2022-12-27T12:06:55.189Z,6.34
2022-12-27T12:10:24.375Z,6.64
2022-12-27T12:14:19.520Z,4.92
2022-12-27T12:18:12.538Z,5.18
2022-12-27T12:21:29.338Z,6.78
2022-12-27T12:25:09.189Z,13.21
2022-12-27T12:29:07.727Z,3.84
2022-12-27T12:32:34.932Z,4.32
2022-12-27T12:36:07.323Z,4.49
2022-12-27T12:39:32.957Z,5.32
2022-12-27T12:42:56.783Z,4.23
2022-12-27T12:46:32.323Z,3.74
2022-12-27T12:50:24.672Z,2.90
2022-12-27T12:54:04.668Z,3.48
2022-12-27T12:57:35.452Z,4.35
2022-12-27T13:01:18.213Z,4.84
2022-12-27T13:05:03.431Z,3.90
2022-12-27T13:08:26.210Z,3.61
2022-12-27T13:11:59.370Z,3.75
2022-12-27T13:15:31.997Z,4.14
2022-12-27T13:19:00.161Z,4.79
2022-12-27T13:22:20.430Z,7.77
2022-12-27T13:25:45.924Z,6.44
2022-12-27T13:29:18.857Z,5.43
2022-12-27T13:32:46.413Z,9.24
2022-12-27T13:36:19.561Z,9.27
2022-12-27T13:40:00.560Z,7.89
2022-12-27T13:43:51.178Z,8.63
2022-12-27T13:47:41.635Z,6.50
2022-12-27T13:51:14.472Z,63.72
2022-12-27T13:55:14.671Z,19.20
2022-12-27T13:59:03.148Z,81.00
2022-12-27T14:03:00.584Z,24.66
2022-12-27T14:06:37.422Z,23.83
2022-12-27T14:10:15.256Z,10.72
2022-12-27T14:13:30.701Z,21.97
2022-12-27T14:17:12.503Z,16.27
2022-12-27T14:20:47.681Z,16.40
2022-12-27T14:24:23.397Z,19.59
2022-12-27T14:28:39.987Z,16.94
2022-12-27T14:32:34.658Z,32.98
2022-12-27T14:36:37.563Z,28.69
2022-12-27T14:40:37.836Z,26.99
2022-12-27T14:44:38.230Z,23.66
2022-12-27T14:48:28.865Z,41.73
2022-12-27T14:52:24.336Z,17.98
2022-12-27T14:55:59.000Z,11.52
2022-12-27T14:59:40.062Z,14.46
2022-12-27T15:03:18.991Z,10.32
2022-12-27T15:07:02.164Z,19.42
2022-12-27T15:10:28.433Z,15.17
2022-12-27T15:14:06.498Z,24.01
2022-12-27T15:17:37.361Z,17.40
2022-12-27T15:21:13.939Z,21.01
2022-12-27T15:24:43.234Z,21.00
2022-12-27T15:28:09.486Z,21.24
2022-12-27T15:31:37.722Z,19.38
2022-12-27T15:35:06.389Z,17.82
2022-12-27T15:38:21.406Z,20.16
2022-12-27T15:41:57.857Z,18.68
2022-12-27T15:45:27.051Z,14.35
2022-12-27T15:49:19.306Z,33.24
2022-12-27T15:52:56.236Z,91.01
2022-12-27T15:56:44.726Z,26.87
2022-12-27T15:59:56.867Z,42.20
2022-12-27T16:03:06.023Z,21.00
2022-12-27T16:06:52.950Z,38.33
2022-12-27T16:09:59.551Z,28.02
2022-12-27T16:13:39.366Z,21.27
2022-12-27T16:17:01.498Z,17.11
2022-12-27T16:20:20.864Z,15.01
2022-12-27T16:23:34.319Z,17.40
2022-12-27T16:27:05.776Z,18.83
2022-12-27T16:30:15.580Z,20.17
2022-12-27T16:33:44.204Z,20.77
2022-12-27T16:37:04.840Z,20.09
2022-12-27T16:40:42.067Z,16.60
2022-12-27T16:54:11.448Z,16.36
2022-12-27T17:08:29.462Z,19.97
2022-12-27T17:18:40.931Z,15.97
2022-12-27T17:21:56.839Z,15.43
2022-12-27T17:25:22.948Z,15.05
2022-12-27T17:28:55.133Z,14.65
2022-12-27T17:32:28.486Z,16.58
2022-12-27T17:36:09.237Z,16.48
2022-12-27T17:39:43.066Z,17.84
2022-12-27T17:43:28.048Z,18.47
2022-12-27T17:47:09.126Z,19.19
2022-12-27T17:50:40.292Z,19.85
2022-12-27T17:54:11.040Z,21.77
2022-12-27T17:57:37.327Z,25.84
2022-12-27T18:01:01.524Z,19.54
2022-12-27T18:04:23.503Z,22.91
2022-12-27T18:07:48.150Z,20.37
2022-12-27T18:11:01.197Z,21.34
2022-12-27T18:14:17.429Z,23.68
2022-12-27T18:17:30.133Z,26.27
2022-12-27T18:20:46.041Z,27.52
2022-12-27T18:23:57.326Z,32.52
2022-12-27T18:27:09.228Z,24.57
2022-12-27T18:30:21.478Z,25.33
2022-12-27T18:33:44.494Z,20.96
2022-12-27T18:37:05.981Z,17.56
2022-12-27T18:40:26.273Z,15.94
2022-12-27T18:43:36.894Z,18.35
2022-12-27T18:46:57.793Z,17.38
2022-12-27T18:50:09.062Z,21.19
2022-12-27T18:53:38.134Z,20.16
2022-12-27T18:56:47.350Z,22.72
2022-12-27T19:00:25.295Z,20.58
2022-12-27T19:03:41.055Z,21.95
2022-12-27T19:07:01.360Z,20.75
2022-12-27T19:10:32.252Z,21.42
2022-12-27T20:14:18.085Z,21.41
2022-12-27T20:17:28.965Z,20.48
2022-12-27T20:20:41.267Z,20.48
2022-12-27T20:23:56.270Z,20.61
2022-12-27T20:46:24.043Z,23.48
2022-12-27T21:40:08.255Z,22.69
2022-12-27T21:43:22.480Z,24.33
2022-12-27T21:46:32.259Z,24.29
2022-12-27T21:49:43.332Z,25.62
2022-12-27T21:56:44.196Z,23.00
2022-12-27T21:59:53.546Z,22.98
2022-12-27T22:02:59.722Z,22.12
2022-12-27T22:06:14.864Z,19.70
2022-12-27T22:09:24.062Z,21.10
2022-12-27T22:12:33.226Z,19.74
2022-12-27T22:19:44.478Z,18.81
2022-12-27T22:26:39.916Z,21.56
2022-12-27T22:29:54.723Z,23.40
2022-12-27T22:33:02.797Z,23.44
2022-12-27T22:47:49.387Z,22.20
2022-12-27T22:55:05.688Z,20.00
2022-12-27T22:58:23.974Z,20.45
2022-12-27T23:01:33.295Z,21.03
2022-12-27T23:04:50.418Z,20.67
2022-12-27T23:08:05.295Z,20.08
2022-12-27T23:31:05.359Z,21.55
2022-12-27T23:34:16.291Z,20.40
2022-12-27T23:37:25.711Z,19.43
2022-12-27T23:40:38.290Z,19.23
2022-12-27T23:51:05.966Z,19.59
2022-12-27T23:54:17.356Z,18.99
